Time;durP1;ratioP1;P1;durP2;ratioP2;P2;SDS_P1;SDS_P2;PMS_P1;PMS_P2;Temp;Humidity;BMP_temperature;BMP_pressure;BME280_temperature;BME280_humidity;BME280_pressure;Samples;Min_cycle;Max_cycle;Signal;HPM_P1;HPM_P2
2024/02/01 00:00:40;;;;;;;47.05;33.97;;;18.80;76.80;;;;;;5053322;28;20544;-68
2024/02/01 00:03:06;;;;;;;49.63;33.63;;;18.80;76.80;;;;;;5066911;28;20033;-68
2024/02/01 00:05:31;;;;;;;48.30;33.78;;;18.80;76.70;;;;;;5065966;28;20582;-67
2024/02/01 00:07:57;;;;;;;49.38;34.33;;;18.80;76.60;;;;;;5060664;28;20039;-68
2024/02/01 00:10:23;;;;;;;48.58;33.30;;;18.80;76.60;;;;;;5057711;28;20380;-65
2024/02/01 00:12:48;;;;;;;44.13;31.30;;;18.80;76.50;;;;;;5067496;28;20069;-68
2024/02/01 00:15:14;;;;;;;45.35;31.88;;;18.80;76.70;;;;;;5051293;28;20074;-69
2024/02/01 00:17:40;;;;;;;42.08;31.15;;;18.80;76.60;;;;;;5058199;28;20144;-70
2024/02/01 00:20:07;;;;;;;46.88;31.40;;;18.80;76.60;;;;;;5060040;28;20090;-69
2024/02/01 00:22:32;;;;;;;42.47;31.00;;;18.80;76.70;;;;;;5065042;28;20494;-70
2024/02/01 00:24:59;;;;;;;41.75;29.08;;;18.80;76.50;;;;;;5054664;28;20072;-68
2024/02/01 00:27:25;;;;;;;41.03;28.77;;;18.80;76.80;;;;;;5066240;28;20017;-69
2024/02/01 00:29:50;;;;;;;37.88;28.05;;;18.80;77.00;;;;;;5057887;28;20025;-70
2024/02/01 00:32:16;;;;;;;40.08;29.05;;;18.80;77.10;;;;;;5058468;28;20515;-66
2024/02/01 00:34:45;;;;;;;39.13;27.95;;;18.80;76.80;;;;;;5065321;28;20029;-67
2024/02/01 00:37:11;;;;;;;40.13;27.27;;;18.80;77.20;;;;;;5054218;28;20107;-67
2024/02/01 00:39:37;;;;;;;38.17;26.38;;;18.80;77.00;;;;;;5064285;28;20108;-69
2024/02/01 00:42:02;;;;;;;40.95;27.92;;;18.80;77.30;;;;;;5060268;28;20020;-68
2024/02/01 00:44:28;;;;;;;36.35;26.63;;;18.90;77.20;;;;;;5057252;28;20029;-69
2024/02/01 00:46:54;;;;;;;38.88;26.17;;;18.90;77.20;;;;;;5067459;28;20032;-68
2024/02/01 00:49:19;;;;;;;33.88;24.48;;;18.90;77.00;;;;;;5054985;28;20035;-68
2024/02/01 00:51:45;;;;;;;37.45;24.10;;;18.90;77.40;;;;;;5062469;28;20151;-69
2024/02/01 00:54:10;;;;;;;36.20;23.75;;;18.90;77.40;;;;;;5061358;28;20060;-70
2024/02/01 00:56:36;;;;;;;38.75;23.33;;;18.90;77.60;;;;;;5070869;28;20028;-68
2024/02/01 00:59:02;;;;;;;36.75;23.13;;;18.90;77.30;;;;;;5054255;28;20021;-70
2024/02/01 01:01:27;;;;;;;33.28;22.98;;;18.90;77.20;;;;;;5064816;28;20031;-70
2024/02/01 01:03:55;;;;;;;40.40;22.63;;;18.90;77.10;;;;;;5058620;28;20032;-67
2024/02/01 01:06:20;;;;;;;38.92;23.27;;;18.90;77.20;;;;;;5057103;28;20546;-68
2024/02/01 01:08:46;;;;;;;32.88;22.85;;;18.90;77.40;;;;;;5066709;28;20025;-68
2024/02/01 01:11:12;;;;;;;36.90;22.95;;;18.90;77.10;;;;;;5053271;28;20077;-69
2024/02/01 01:13:37;;;;;;;31.50;21.38;;;18.90;77.10;;;;;;5063994;28;20048;-67
2024/02/01 01:16:03;;;;;;;31.95;22.80;;;18.90;77.00;;;;;;5060409;28;20024;-69
2024/02/01 01:18:29;;;;;;;31.70;20.83;;;18.90;77.10;;;;;;5056447;28;20458;-66
2024/02/01 01:20:57;;;;;;;30.05;21.33;;;18.90;77.20;;;;;;5065972;28;20028;-67
2024/02/01 01:23:22;;;;;;;28.17;20.27;;;18.90;77.10;;;;;;5054688;28;20134;-67
2024/02/01 01:25:48;;;;;;;31.38;20.67;;;18.90;77.00;;;;;;5062082;28;20121;-67
2024/02/01 01:28:14;;;;;;;27.95;19.33;;;18.90;76.90;;;;;;5061751;28;20161;-67
2024/02/01 01:30:39;;;;;;;30.35;19.35;;;18.90;77.00;;;;;;5054389;28;20102;-67
2024/02/01 01:33:05;;;;;;;28.33;19.50;;;18.90;77.00;;;;;;5066476;28;20035;-65
2024/02/01 01:35:30;;;;;;;27.80;17.42;;;18.90;77.20;;;;;;5055530;28;20179;-70
2024/02/01 01:37:56;;;;;;;30.23;18.90;;;18.90;77.30;;;;;;5059641;28;20024;-68
2024/02/01 01:40:23;;;;;;;31.17;18.17;;;18.90;77.50;;;;;;5060902;28;20029;-65
2024/02/01 01:42:48;;;;;;;27.73;17.92;;;18.90;77.50;;;;;;5053505;28;20056;-69
2024/02/01 01:45:15;;;;;;;27.73;18.80;;;18.90;77.30;;;;;;5066512;28;20056;-67
2024/02/01 01:47:41;;;;;;;22.55;16.58;;;18.90;77.20;;;;;;5056861;28;20555;-69
2024/02/01 01:50:07;;;;;;;26.33;18.38;;;18.90;77.10;;;;;;5058931;28;20123;-66
2024/02/01 01:52:35;;;;;;;26.17;17.40;;;18.90;77.40;;;;;;5063842;28;20024;-67
2024/02/01 01:55:02;;;;;;;25.45;17.15;;;18.90;77.20;;;;;;5053021;28;20041;-67
2024/02/01 01:57:28;;;;;;;24.00;16.88;;;18.90;77.30;;;;;;5064433;28;20029;-69
2024/02/01 01:59:55;;;;;;;24.15;16.83;;;18.90;77.10;;;;;;5057030;28;20063;-70
2024/02/01 02:02:21;;;;;;;21.95;15.52;;;18.90;77.30;;;;;;5055986;28;20415;-68
2024/02/01 02:04:50;;;;;;;23.38;16.17;;;18.90;77.20;;;;;;5065684;28;20021;-70
2024/02/01 02:07:16;;;;;;;21.58;15.32;;;18.90;77.20;;;;;;5036467;28;20048;-68
2024/02/01 02:09:42;;;;;;;22.75;15.45;;;18.90;77.20;;;;;;5061913;28;20065;-69
2024/02/01 02:12:07;;;;;;;23.58;16.10;;;18.90;77.20;;;;;;5059383;28;20029;-70
2024/02/01 02:14:33;;;;;;;20.85;15.23;;;18.90;77.00;;;;;;5053775;28;20027;-68
2024/02/01 02:16:58;;;;;;;20.10;14.90;;;18.90;77.10;;;;;;5065711;28;20020;-68
2024/02/01 02:19:25;;;;;;;20.33;14.68;;;18.90;77.00;;;;;;5053920;28;20048;-70
2024/02/01 02:21:53;;;;;;;20.73;14.48;;;18.90;77.20;;;;;;5059810;28;20033;-67
2024/02/01 02:24:19;;;;;;;21.00;13.85;;;18.90;77.20;;;;;;5061019;28;20369;-69
2024/02/01 02:26:47;;;;;;;21.40;14.52;;;18.90;77.20;;;;;;5052970;28;20017;-70
2024/02/01 02:29:14;;;;;;;18.63;13.45;;;18.90;77.20;;;;;;5065494;28;20025;-70
2024/02/01 02:31:49;;;;;;;18.33;13.73;;;18.90;77.10;;;;;;5055196;28;20039;-69
2024/02/01 02:34:14;;;;;;;19.60;13.98;;;18.90;77.20;;;;;;5057000;28;20365;-69
2024/02/01 02:36:40;;;;;;;19.70;13.65;;;18.90;77.20;;;;;;5064045;28;20016;-69
2024/02/01 02:39:09;;;;;;;19.15;13.50;;;18.90;77.30;;;;;;5052180;28;20052;-68
2024/02/01 02:41:35;;;;;;;17.95;13.52;;;18.90;77.30;;;;;;5062115;28;20037;-68
2024/02/01 02:44:02;;;;;;;16.67;11.85;;;18.90;77.40;;;;;;5058432;28;20548;-68
2024/02/01 02:46:30;;;;;;;16.25;12.02;;;18.90;77.40;;;;;;5055185;28;20075;-67
2024/02/01 02:48:56;;;;;;;17.52;12.70;;;18.90;77.40;;;;;;5065280;28;20101;-68
2024/02/01 02:51:22;;;;;;;17.70;12.32;;;18.90;77.50;;;;;;5052693;28;20107;-68
2024/02/01 02:53:48;;;;;;;16.63;12.63;;;18.90;77.40;;;;;;5060885;28;20175;-68
2024/02/01 02:56:13;;;;;;;17.30;11.88;;;18.90;77.50;;;;;;5061435;28;20031;-68
2024/02/01 02:58:39;;;;;;;17.52;12.40;;;19.00;77.80;;;;;;5053811;28;20104;-68
2024/02/01 03:01:08;;;;;;;17.73;12.05;;;19.00;77.90;;;;;;5066069;28;20051;-69
2024/02/01 03:03:40;;;;;;;17.50;11.90;;;19.00;78.10;;;;;;5055859;28;20614;-68
2024/02/01 03:06:10;;;;;;;17.00;12.05;;;18.90;77.70;;;;;;5059738;28;20033;-67
2024/02/01 03:08:42;;;;;;;15.90;11.00;;;19.00;77.60;;;;;;5064617;28;20033;-67
2024/02/01 03:11:12;;;;;;;18.88;12.35;;;18.90;77.50;;;;;;5052945;28;20028;-68
2024/02/01 03:13:41;;;;;;;18.25;11.63;;;18.90;77.80;;;;;;5063524;28;20067;-69
2024/02/01 03:16:20;;;;;;;21.42;11.98;;;19.00;77.60;;;;;;5060688;28;20029;-70
2024/02/01 03:18:47;;;;;;;18.25;11.35;;;19.00;77.90;;;;;;5053970;28;20557;-69
2024/02/01 03:21:14;;;;;;;17.80;11.10;;;19.00;77.60;;;;;;5064594;28;20025;-70
2024/02/01 03:23:47;;;;;;;24.02;10.50;;;19.00;77.70;;;;;;5056907;28;20485;-71
2024/02/01 03:26:14;;;;;;;17.02;10.48;;;19.00;77.80;;;;;;5060611;28;20061;-70
2024/02/01 03:28:41;;;;;;;17.83;9.88;;;19.00;77.80;;;;;;5068651;28;20039;-70
2024/02/01 03:31:07;;;;;;;16.50;11.35;;;19.00;77.90;;;;;;5056284;28;20158;-68
2024/02/01 03:33:38;;;;;;;19.67;11.82;;;19.00;76.80;;;;;;5067579;28;20108;-68
2024/02/01 03:36:14;;;;;;;16.38;11.57;;;19.00;76.50;;;;;;5063772;28;20511;-68
2024/02/01 03:38:42;;;;;;;18.42;10.80;;;19.00;77.10;;;;;;5058326;28;20147;-70
2024/02/01 03:41:08;;;;;;;18.13;10.40;;;19.00;77.30;;;;;;5069242;28;20538;-67
2024/02/01 03:43:34;;;;;;;17.35;10.35;;;19.00;77.40;;;;;;5059615;28;20392;-67
2024/02/01 03:45:59;;;;;;;17.33;9.88;;;19.00;77.30;;;;;;5063897;28;20025;-67
2024/02/01 03:48:25;;;;;;;16.73;10.18;;;19.00;77.40;;;;;;5066236;28;20024;-68
2024/02/01 03:50:51;;;;;;;17.50;10.48;;;19.00;77.50;;;;;;5055913;28;20029;-68
2024/02/01 03:53:18;;;;;;;14.55;9.60;;;19.00;77.50;;;;;;5063503;22;20508;-65
2024/02/01 03:55:48;;;;;;;19.45;9.73;;;19.00;77.50;;;;;;5033478;28;20124;-65
2024/02/01 03:58:15;;;;;;;16.75;9.70;;;19.00;77.50;;;;;;5034325;28;20401;-66
2024/02/01 04:00:40;;;;;;;14.32;9.25;;;19.00;77.60;;;;;;5035348;28;20018;-66
2024/02/01 04:03:13;;;;;;;15.68;8.60;;;19.00;77.60;;;;;;5037507;28;20068;-64
2024/02/01 04:05:39;;;;;;;12.90;8.98;;;19.00;77.60;;;;;;5032852;28;20488;-65
2024/02/01 04:08:06;;;;;;;14.07;8.85;;;19.00;77.70;;;;;;5032767;28;20033;-65
2024/02/01 04:10:37;;;;;;;12.63;8.88;;;19.00;77.60;;;;;;5031147;28;20033;-65
2024/02/01 04:13:05;;;;;;;12.90;8.60;;;19.00;77.60;;;;;;5032671;28;20018;-66
2024/02/01 04:15:34;;;;;;;14.25;8.30;;;18.90;77.60;;;;;;5022754;28;20547;-65
2024/02/01 04:18:04;;;;;;;12.10;7.82;;;19.00;77.80;;;;;;5023670;28;20021;-65
2024/02/01 04:20:33;;;;;;;11.75;8.30;;;19.00;77.80;;;;;;5020084;28;20045;-64
2024/02/01 04:22:59;;;;;;;12.23;7.70;;;19.00;77.70;;;;;;5023690;28;20100;-66
2024/02/01 04:25:25;;;;;;;11.18;7.63;;;19.00;77.50;;;;;;5012976;28;20108;-64
2024/02/01 04:27:51;;;;;;;12.60;7.22;;;19.00;77.50;;;;;;5032730;28;20021;-64
2024/02/01 04:30:18;;;;;;;9.63;7.50;;;18.90;77.50;;;;;;5032058;28;20045;-64
2024/02/01 04:32:45;;;;;;;13.00;7.95;;;19.00;77.60;;;;;;5021627;28;20108;-64
2024/02/01 04:35:14;;;;;;;10.60;7.78;;;19.00;77.50;;;;;;5031674;28;20029;-67
2024/02/01 04:37:43;;;;;;;11.40;7.32;;;19.00;77.40;;;;;;5015321;28;20022;-67
2024/02/01 04:40:11;;;;;;;9.20;7.03;;;19.00;77.60;;;;;;5018605;28;20057;-68
2024/02/01 04:42:39;;;;;;;8.45;6.40;;;19.00;77.40;;;;;;5049752;28;20049;-68
2024/02/01 04:45:07;;;;;;;8.93;6.70;;;19.00;77.60;;;;;;5048500;28;20017;-67
2024/02/01 04:47:36;;;;;;;9.95;6.70;;;19.00;77.30;;;;;;5052665;28;20017;-68
2024/02/01 04:50:03;;;;;;;9.23;6.43;;;19.00;77.20;;;;;;5042304;28;20037;-69
2024/02/01 04:52:30;;;;;;;11.98;6.82;;;18.90;77.40;;;;;;5039960;28;20033;-72
2024/02/01 04:54:58;;;;;;;13.57;6.50;;;19.00;77.40;;;;;;5035521;28;20021;-66
2024/02/01 04:57:24;;;;;;;10.75;6.22;;;19.00;77.40;;;;;;5028422;28;20017;-67
2024/02/01 04:59:50;;;;;;;10.65;6.38;;;19.00;77.30;;;;;;5028208;28;20068;-66
2024/02/01 05:02:16;;;;;;;10.50;6.70;;;19.00;77.20;;;;;;5011808;28;20018;-63
2024/02/01 05:04:43;;;;;;;8.52;6.18;;;19.00;77.20;;;;;;5027408;28;20076;-67
2024/02/01 05:07:09;;;;;;;14.20;6.57;;;19.00;77.20;;;;;;5015526;28;20044;-66
2024/02/01 05:09:39;;;;;;;10.25;6.10;;;19.00;77.30;;;;;;5025771;28;20476;-65
2024/02/01 05:12:07;;;;;;;8.55;6.07;;;19.00;77.40;;;;;;5021582;28;20116;-65
2024/02/01 05:14:33;;;;;;;8.25;5.88;;;19.00;77.40;;;;;;5017725;28;20401;-65
2024/02/01 05:16:59;;;;;;;7.75;5.60;;;19.00;77.70;;;;;;5028312;28;20028;-65
2024/02/01 05:19:25;;;;;;;11.18;6.07;;;19.00;77.40;;;;;;5016478;28;20124;-65
2024/02/01 05:21:52;;;;;;;9.82;5.70;;;19.00;77.40;;;;;;5021336;28;20397;-66
2024/02/01 05:24:18;;;;;;;8.05;5.38;;;19.00;77.20;;;;;;5023997;28;20508;-65
2024/02/01 05:26:46;;;;;;;9.55;5.57;;;19.00;77.30;;;;;;5015958;28;20113;-67
2024/02/01 05:29:15;;;;;;;8.38;5.43;;;19.00;77.30;;;;;;5028056;28;20018;-66
2024/02/01 05:31:47;;;;;;;9.10;5.85;;;19.00;77.40;;;;;;5017892;28;20030;-65
2024/02/01 05:34:14;;;;;;;8.25;5.32;;;19.00;77.70;;;;;;5020404;28;20037;-65
2024/02/01 05:36:40;;;;;;;8.48;5.72;;;19.00;77.30;;;;;;5026745;28;20071;-65
2024/02/01 05:39:06;;;;;;;8.23;4.95;;;19.00;77.40;;;;;;5014888;28;20424;-66
2024/02/01 05:41:31;;;;;;;7.00;4.78;;;19.00;77.60;;;;;;5025226;28;20084;-68
2024/02/01 05:43:57;;;;;;;6.70;4.90;;;19.00;77.40;;;;;;5011867;28;20508;-68
2024/02/01 05:46:23;;;;;;;7.25;4.60;;;19.00;77.70;;;;;;5023269;28;20032;-69
2024/02/01 05:48:48;;;;;;;10.23;4.53;;;19.00;77.60;;;;;;5015199;28;20030;-68
2024/02/01 05:51:14;;;;;;;7.97;4.97;;;19.00;77.30;;;;;;5027315;28;20033;-68
2024/02/01 05:53:40;;;;;;;11.05;4.40;;;19.00;77.50;;;;;;5018198;28;20099;-69
2024/02/01 05:56:06;;;;;;;8.82;4.72;;;19.00;77.40;;;;;;5021133;28;20036;-69
2024/02/01 05:58:32;;;;;;;6.60;4.97;;;19.00;77.40;;;;;;5025160;28;20022;-65
2024/02/01 06:00:57;;;;;;;10.32;4.43;;;19.00;77.30;;;;;;5013628;28;20030;-66
2024/02/01 06:03:23;;;;;;;8.73;4.55;;;19.00;77.20;;;;;;5026295;28;20022;-65
2024/02/01 06:05:49;;;;;;;6.60;4.60;;;19.00;77.10;;;;;;5019161;28;20033;-66
2024/02/01 06:08:15;;;;;;;9.40;4.72;;;19.00;77.30;;;;;;5019286;28;20120;-66
2024/02/01 06:10:41;;;;;;;27.27;6.63;;;19.00;77.90;;;;;;5025422;28;20475;-67
2024/02/01 06:13:07;;;;;;;30.25;5.43;;;19.00;77.80;;;;;;5014380;28;20022;-66
2024/02/01 06:15:35;;;;;;;33.47;6.38;;;19.00;77.90;;;;;;5024682;28;20112;-66
2024/02/01 06:18:01;;;;;;;14.68;5.15;;;19.00;77.90;;;;;;5020629;28;20021;-66
2024/02/01 06:20:27;;;;;;;14.52;4.63;;;19.00;77.80;;;;;;5016904;28;20084;-67
2024/02/01 06:22:52;;;;;;;13.07;5.15;;;19.00;77.60;;;;;;5026075;28;20036;-66
2024/02/01 06:25:18;;;;;;;15.00;5.50;;;18.90;77.50;;;;;;5026875;28;20018;-67
2024/02/01 06:27:44;;;;;;;13.98;5.07;;;18.90;77.40;;;;;;5018358;28;20507;-66
2024/02/01 06:30:10;;;;;;;20.83;6.05;;;18.90;77.50;;;;;;5018942;28;20037;-66
2024/02/01 06:32:36;;;;;;;17.05;6.00;;;19.00;78.80;;;;;;5025170;28;20026;-65
2024/02/01 06:35:06;;;;;;;22.35;5.78;;;19.00;79.00;;;;;;5014247;28;20022;-66
2024/02/01 06:37:32;;;;;;;17.27;5.82;;;19.00;79.00;;;;;;5025055;28;20076;-67
2024/02/01 06:40:37;;;;;;;15.35;6.15;;;19.00;78.40;;;;;;5019771;28;20092;-69
2024/02/01 06:43:27;;;;;;;19.88;6.15;;;19.00;78.00;;;;;;5012434;28;20116;-67
2024/02/01 06:46:18;;;;;;;10.43;4.82;;;19.00;78.20;;;;;;5020295;28;20532;-67
2024/02/01 06:48:46;;;;;;;12.85;5.30;;;19.00;78.00;;;;;;5014846;28;20030;-67
2024/02/01 06:51:21;;;;;;;10.68;4.47;;;18.90;78.10;;;;;;5026124;28;20513;-67
2024/02/01 06:53:56;;;;;;;13.15;5.25;;;19.00;78.10;;;;;;5018377;28;20033;-68
2024/02/01 06:59:29;;;;;;;39.63;7.47;;;19.00;78.20;;;;;;5027235;28;20155;-66
2024/02/01 07:02:06;;;;;;;58.83;12.05;;;19.00;79.60;;;;;;5021638;28;20026;-66
2024/02/01 07:04:42;;;;;;;37.53;9.43;;;19.00;79.70;;;;;;5020442;28;20029;-66
2024/02/01 07:07:18;;;;;;;42.95;9.60;;;19.00;79.50;;;;;;5030742;28;20028;-68
2024/02/01 07:09:57;;;;;;;37.63;7.32;;;19.00;79.10;;;;;;5021521;28;20163;-66
2024/02/01 07:12:42;;;;;;;29.95;7.72;;;19.00;78.90;;;;;;5021519;28;20056;-66
2024/02/01 07:17:58;;;;;;;32.22;7.03;;;18.90;78.50;;;;;;5022683;28;20032;-68
2024/02/01 07:20:35;;;;;;;23.38;7.20;;;18.90;78.30;;;;;;5020907;28;20088;-65
2024/02/01 07:23:33;;;;;;;7.82;3.17;;;18.90;78.20;;;;;;5041743;28;20049;-69
2024/02/01 07:58:49;;;;;;;1.83;1.00;;;14.40;71.60;;;;;;5032839;28;20088;-69
2024/02/01 08:01:18;;;;;;;1.25;0.80;;;14.80;71.90;;;;;;5032956;28;20021;-68
2024/02/01 08:03:58;;;;;;;1.55;0.82;;;15.20;71.90;;;;;;5032191;28;20017;-68
2024/02/01 08:09:14;;;;;;;1.35;1.00;;;;;;;;;;5035071;28;20091;-68
2024/02/01 08:11:44;;;;;;;0.93;0.60;;;16.10;71.50;;;;;;5033803;28;20105;-68
2024/02/01 08:14:15;;;;;;;1.60;0.60;;;16.30;71.40;;;;;;5035081;28;20025;-68
2024/02/01 08:16:42;;;;;;;0.47;0.47;;;16.40;71.30;;;;;;5035909;28;20026;-68
2024/02/01 08:19:08;;;;;;;0.88;0.60;;;16.60;71.20;;;;;;5035856;28;20466;-68
2024/02/01 08:21:39;;;;;;;0.90;0.65;;;16.80;71.10;;;;;;5039406;28;20022;-68
2024/02/01 08:24:06;;;;;;;0.40;0.40;;;17.00;71.00;;;;;;5042869;28;20028;-68
2024/02/01 08:26:43;;;;;;;2.08;0.50;;;17.00;70.90;;;;;;5040562;28;20040;-68
2024/02/01 08:29:15;;;;;;;1.15;0.52;;;17.20;70.80;;;;;;5034419;28;20041;-68
2024/02/01 08:31:41;;;;;;;1.45;0.40;;;17.30;70.70;;;;;;5033050;28;20097;-68
2024/02/01 08:34:14;;;;;;;2.60;0.50;;;17.50;70.60;;;;;;5033579;28;20493;-68
2024/02/01 08:36:41;;;;;;;0.55;0.52;;;17.50;70.40;;;;;;5033247;28;20021;-70
2024/02/01 08:39:08;;;;;;;1.10;0.35;;;17.50;70.30;;;;;;5032815;28;20036;-70
2024/02/01 08:41:35;;;;;;;0.43;0.40;;;17.60;70.30;;;;;;5032164;28;20021;-69
2024/02/01 08:44:02;;;;;;;1.05;0.40;;;17.70;70.20;;;;;;5031606;28;20034;-68
2024/02/01 08:46:28;;;;;;;0.55;0.30;;;17.70;70.10;;;;;;5032777;28;20021;-70
2024/02/01 08:48:54;;;;;;;0.40;0.40;;;17.80;70.00;;;;;;5032748;28;20109;-68
2024/02/01 08:51:19;;;;;;;0.70;0.30;;;17.90;69.90;;;;;;5031953;28;20037;-67
2024/02/01 08:53:45;;;;;;;0.35;0.20;;;17.90;69.80;;;;;;5032688;28;20076;-68
2024/02/01 08:56:12;;;;;;;0.60;0.35;;;18.00;69.80;;;;;;5031128;28;20033;-68
2024/02/01 08:58:38;;;;;;;0.95;0.63;;;18.00;69.70;;;;;;5032425;28;20547;-68
2024/02/01 09:01:04;;;;;;;0.63;0.30;;;18.00;69.60;;;;;;5030752;28;20101;-68
2024/02/01 09:03:30;;;;;;;0.35;0.30;;;18.00;69.50;;;;;;5032250;28;20017;-68
2024/02/01 09:06:08;;;;;;;0.30;0.22;;;18.10;69.50;;;;;;5032385;28;20028;-68
2024/02/01 09:08:39;;;;;;;0.20;0.20;;;18.10;69.40;;;;;;5032200;28;20025;-68
2024/02/01 09:11:14;;;;;;;0.32;0.32;;;18.10;69.40;;;;;;5030270;28;20412;-68
2024/02/01 09:13:43;;;;;;;0.60;0.40;;;18.10;69.40;;;;;;5032118;28;20037;-68
2024/02/01 09:16:11;;;;;;;1.55;0.50;;;18.20;69.30;;;;;;5031793;28;20021;-70
2024/02/01 09:18:37;;;;;;;0.82;0.20;;;18.20;69.30;;;;;;5032128;28;20022;-68
2024/02/01 09:21:03;;;;;;;0.40;0.30;;;18.20;69.20;;;;;;5031175;28;20607;-68
2024/02/01 09:23:28;;;;;;;0.75;0.40;;;18.30;69.20;;;;;;5031514;28;20025;-68
2024/02/01 09:25:54;;;;;;;0.20;0.20;;;18.30;69.20;;;;;;5032158;28;20477;-68
2024/02/01 09:28:19;;;;;;;0.50;0.22;;;18.30;69.20;;;;;;5031941;28;20034;-68
2024/02/01 09:30:47;;;;;;;0.45;0.30;;;18.30;69.10;;;;;;5031186;28;20040;-70
2024/02/01 09:33:20;;;;;;;0.30;0.22;;;18.30;69.10;;;;;;5032045;28;20478;-67
2024/02/01 09:35:46;;;;;;;0.35;0.25;;;18.30;69.10;;;;;;5031743;28;20022;-70
2024/02/01 09:38:12;;;;;;;0.20;0.20;;;18.30;69.10;;;;;;5031861;28;20469;-68
2024/02/01 09:40:41;;;;;;;1.38;0.22;;;18.30;69.10;;;;;;5031445;28;20067;-68
2024/02/01 09:43:17;;;;;;;0.43;0.15;;;18.30;69.10;;;;;;5031771;28;20040;-68
2024/02/01 09:45:46;;;;;;;0.20;0.20;;;18.30;69.20;;;;;;5032028;28;20022;-68
2024/02/01 09:48:18;;;;;;;0.57;0.10;;;18.30;69.30;;;;;;5031979;28;20030;-68
2024/02/01 09:50:55;;;;;;;0.35;0.17;;;18.30;69.30;;;;;;5031566;28;20080;-69
2024/02/01 09:53:24;;;;;;;0.10;0.10;;;18.30;69.30;;;;;;5032482;28;20036;-68
2024/02/01 09:55:52;;;;;;;0.20;0.20;;;18.30;69.40;;;;;;5033516;28;20049;-67
2024/02/01 09:58:19;;;;;;;0.77;0.30;;;18.30;69.40;;;;;;5035500;28;20080;-70
2024/02/01 10:00:45;;;;;;;0.20;0.10;;;18.20;69.50;;;;;;5038865;28;20056;-69
2024/02/01 10:03:15;;;;;;;0.38;0.20;;;18.30;69.50;;;;;;5036447;28;20454;-67
2024/02/01 10:05:42;;;;;;;0.77;0.20;;;18.30;69.50;;;;;;5039408;28;20029;-68
2024/02/01 10:08:12;;;;;;;3.03;0.20;;;18.20;69.50;;;;;;5039812;28;20029;-67
2024/02/01 10:10:42;;;;;;;0.63;0.20;;;18.30;69.60;;;;;;5032899;28;20021;-69
2024/02/01 10:13:13;;;;;;;0.40;0.40;;;18.30;69.60;;;;;;5031926;28;20057;-68
2024/02/01 10:15:48;;;;;;;;;;;18.20;69.60;;;;;;5032905;28;20105;-68
2024/02/01 10:18:21;;;;;;;0.10;0.10;;;18.20;69.60;;;;;;5032857;28;19905;-68
2024/02/01 10:20:47;;;;;;;0.20;0.10;;;18.30;69.60;;;;;;5032180;28;20283;-68
2024/02/01 10:23:13;;;;;;;0.35;0.20;;;18.20;69.70;;;;;;5032783;28;20025;-68
2024/02/01 10:25:41;;;;;;;0.28;0.28;;;18.20;69.70;;;;;;5031765;28;20071;-68
2024/02/01 10:28:09;;;;;;;0.28;0.20;;;18.30;69.70;;;;;;5033086;28;20029;-67
2024/02/01 10:30:43;;;;;;;0.10;0.10;;;18.20;69.70;;;;;;5030999;28;20040;-69
2024/02/01 10:33:13;;;;;;;0.10;0.10;;;18.20;69.80;;;;;;5031509;28;20408;-67
2024/02/01 10:35:40;;;;;;;0.17;0.10;;;18.30;69.80;;;;;;5033824;28;20033;-70
2024/02/01 10:38:13;;;;;;;0.95;0.40;;;18.30;69.80;;;;;;5035191;28;20116;-68
2024/02/01 10:40:52;;;;;;;0.28;0.10;;;18.30;69.80;;;;;;5034547;28;20029;-69
2024/02/01 10:43:20;;;;;;;1.27;0.20;;;18.30;69.80;;;;;;5035288;28;20031;-68
2024/02/01 10:46:18;;;;;;;0.20;0.10;;;18.30;69.80;;;;;;5033899;28;20033;-67
2024/02/01 10:48:53;;;;;;;0.20;0.20;;;18.30;69.90;;;;;;5034384;28;20033;-68
2024/02/01 10:51:19;;;;;;;0.10;0.10;;;18.20;69.90;;;;;;5034302;28;20025;-67
2024/02/01 10:53:47;;;;;;;0.40;0.32;;;18.30;69.90;;;;;;5034889;28;20057;-68
2024/02/01 10:56:14;;;;;;;0.10;0.10;;;18.30;69.90;;;;;;5034844;28;20028;-67
2024/02/01 10:58:51;;;;;;;0.30;0.20;;;18.30;69.90;;;;;;5034625;28;20022;-68
2024/02/01 11:01:24;;;;;;;0.35;0.10;;;18.30;69.90;;;;;;5034301;28;20025;-68
2024/02/01 11:03:51;;;;;;;0.10;0.10;;;18.30;70.00;;;;;;5034891;28;20104;-69
2024/02/01 11:06:18;;;;;;;0.20;0.10;;;18.30;70.00;;;;;;5010402;28;20030;-67
2024/02/01 11:08:51;;;;;;;0.20;0.20;;;18.30;70.00;;;;;;4995093;28;20042;-68
2024/02/01 11:11:31;;;;;;;0.10;0.10;;;18.30;70.00;;;;;;4994886;28;20022;-67
2024/02/01 11:14:09;;;;;;;0.20;0.20;;;18.30;70.00;;;;;;4996362;28;20030;-67
2024/02/01 11:16:39;;;;;;;0.20;0.20;;;18.30;70.10;;;;;;4996096;28;20027;-68
2024/02/01 11:19:13;;;;;;;0.13;0.03;;;18.30;70.10;;;;;;4995872;28;20137;-67
2024/02/01 11:21:49;;;;;;;0.35;0.22;;;18.30;70.10;;;;;;4994503;28;20034;-68
2024/02/01 11:24:20;;;;;;;0.40;0.10;;;18.30;70.10;;;;;;4994788;28;20022;-67
2024/02/01 11:26:47;;;;;;;0.10;0.10;;;18.30;70.10;;;;;;4995063;28;20105;-69
2024/02/01 11:29:21;;;;;;;0.43;0.13;;;18.40;70.20;;;;;;4994634;28;20487;-68
2024/02/01 11:31:47;;;;;;;0.40;0.15;;;18.40;70.10;;;;;;4993903;28;20030;-69
2024/02/01 11:34:14;;;;;;;0.40;0.17;;;18.40;70.10;;;;;;4994546;28;20026;-67
2024/02/01 11:36:43;;;;;;;0.32;0.10;;;18.40;70.10;;;;;;4994661;28;20026;-68
2024/02/01 11:39:11;;;;;;;0.00;0.00;;;18.40;70.10;;;;;;4994943;28;20018;-68
2024/02/01 11:41:37;;;;;;;0.32;0.10;;;18.40;70.10;;;;;;4993905;28;20735;-67
2024/02/01 11:44:04;;;;;;;0.10;0.10;;;18.40;70.10;;;;;;4994897;28;20015;-68
2024/02/01 11:46:30;;;;;;;0.10;0.10;;;18.40;70.10;;;;;;4994376;28;20034;-67
2024/02/01 11:48:56;;;;;;;0.32;0.10;;;18.40;70.10;;;;;;4994509;28;20057;-67
2024/02/01 11:51:24;;;;;;;0.10;0.10;;;18.40;70.10;;;;;;4993826;28;20109;-68
2024/02/01 11:53:51;;;;;;;0.10;0.10;;;18.40;70.10;;;;;;4993078;28;20071;-68
2024/02/01 11:56:21;;;;;;;0.15;0.10;;;18.50;70.10;;;;;;4994265;28;20073;-71
2024/02/01 11:58:47;;;;;;;0.20;0.10;;;18.40;70.10;;;;;;4994440;28;20065;-67
2024/02/01 12:01:13;;;;;;;0.10;0.10;;;18.40;70.10;;;;;;4993572;28;20426;-67
2024/02/01 12:03:48;;;;;;;0.32;0.10;;;18.50;70.10;;;;;;4994438;28;20029;-67
2024/02/01 12:06:15;;;;;;;0.63;0.25;;;18.40;70.10;;;;;;4993180;28;20030;-68
2024/02/01 12:08:41;;;;;;;0.10;0.10;;;18.40;70.10;;;;;;4994257;28;20068;-67
2024/02/01 12:11:07;;;;;;;0.10;0.10;;;18.50;70.10;;;;;;4993612;28;20022;-67
2024/02/01 12:13:33;;;;;;;0.10;0.10;;;18.40;70.10;;;;;;4993014;28;20023;-67
2024/02/01 12:15:59;;;;;;;0.10;0.10;;;18.50;70.10;;;;;;4994027;28;20034;-68
2024/02/01 12:18:24;;;;;;;0.10;0.03;;;18.40;70.10;;;;;;4994417;28;20514;-67
2024/02/01 12:20:50;;;;;;;0.20;0.10;;;18.40;70.10;;;;;;4993568;28;20026;-68
2024/02/01 12:23:16;;;;;;;0.50;0.15;;;18.40;70.10;;;;;;4993016;28;20076;-69
2024/02/01 12:25:47;;;;;;;0.38;0.28;;;18.40;70.10;;;;;;4992809;28;20086;-67
2024/02/01 12:28:13;;;;;;;0.10;0.05;;;18.50;70.10;;;;;;4993891;28;20028;-68
2024/02/01 12:30:43;;;;;;;0.10;0.10;;;18.40;70.10;;;;;;4991894;28;20050;-68
2024/02/01 12:33:12;;;;;;;0.47;0.10;;;18.40;70.10;;;;;;4992976;28;20026;-67
2024/02/01 12:35:39;;;;;;;0.22;0.08;;;18.50;70.20;;;;;;4997572;28;20451;-68
2024/02/01 12:38:05;;;;;;;0.10;0.10;;;18.40;70.20;;;;;;5006294;28;20026;-69
2024/02/01 12:40:30;;;;;;;0.10;0.10;;;18.40;70.20;;;;;;5003678;28;20022;-69
2024/02/01 12:43:01;;;;;;;0.00;0.00;;;18.40;70.20;;;;;;5002152;28;20027;-68
2024/02/01 12:45:27;;;;;;;0.15;0.10;;;18.40;70.20;;;;;;5001383;28;20018;-69
2024/02/01 12:47:53;;;;;;;0.20;0.17;;;18.40;70.20;;;;;;4995484;28;20033;-69
2024/02/01 12:50:20;;;;;;;0.28;0.10;;;18.40;70.20;;;;;;4993210;28;20037;-67
2024/02/01 12:52:46;;;;;;;0.13;0.10;;;18.40;70.30;;;;;;4992119;28;20493;-67
2024/02/01 12:55:12;;;;;;;0.20;0.10;;;18.40;70.30;;;;;;4993537;28;20113;-67
2024/02/01 12:57:46;;;;;;;0.85;0.30;;;18.40;70.30;;;;;;4992810;28;20105;-68
2024/02/01 13:00:12;;;;;;;0.10;0.10;;;18.40;70.30;;;;;;4992647;28;20097;-67
2024/02/01 13:02:39;;;;;;;0.10;0.10;;;18.40;70.30;;;;;;4993154;28;20026;-67
2024/02/01 13:05:09;;;;;;;0.40;0.10;;;18.40;70.30;;;;;;4993340;28;20475;-67
2024/02/01 13:07:36;;;;;;;0.25;0.10;;;18.40;70.30;;;;;;4993292;28;20073;-67
2024/02/01 13:10:09;;;;;;;0.20;0.10;;;18.40;70.30;;;;;;4991273;28;20402;-67
2024/02/01 13:12:35;;;;;;;0.00;0.00;;;18.40;70.30;;;;;;4993536;28;20034;-67
2024/02/01 13:15:02;;;;;;;0.10;0.10;;;18.40;70.30;;;;;;4993206;28;20114;-67
2024/02/01 13:17:34;;;;;;;0.05;0.00;;;18.40;70.30;;;;;;4992998;28;20022;-67
2024/02/01 13:20:00;;;;;;;0.03;0.03;;;18.40;70.20;;;;;;4992543;28;20077;-68
2024/02/01 13:22:28;;;;;;;0.08;0.08;;;18.40;70.20;;;;;;4992607;28;20026;-67
2024/02/01 13:24:54;;;;;;;0.03;0.03;;;18.40;70.20;;;;;;4992986;28;20109;-67
2024/02/01 13:27:20;;;;;;;0.10;0.10;;;18.30;70.10;;;;;;4992803;28;20506;-68